createdAt,value
2022-08-27T05:34:27.141Z,75.03
2022-08-27T05:39:30.009Z,74.38
2022-08-27T05:44:41.406Z,74.22
2022-08-27T05:49:45.548Z,73.92
2022-08-27T05:54:48.126Z,73.94
2022-08-27T06:00:08.969Z,73.89
2022-08-27T06:05:18.225Z,73.38
2022-08-27T06:10:20.733Z,73.03
2022-08-27T06:15:23.101Z,72.81
2022-08-27T06:20:25.488Z,73.08
2022-08-27T06:25:27.811Z,72.70
2022-08-27T06:30:30.164Z,72.29
2022-08-27T06:35:35.069Z,72.48
2022-08-27T06:40:42.031Z,72.42
2022-08-27T06:45:44.436Z,72.32
2022-08-27T06:50:46.986Z,72.63
2022-08-27T06:55:49.719Z,72.75
2022-08-27T07:00:52.228Z,72.78
2022-08-27T07:05:54.542Z,72.87
2022-08-27T07:10:57.672Z,72.64
2022-08-27T07:16:08.354Z,73.13
2022-08-27T07:21:10.998Z,72.48
2022-08-27T07:26:15.293Z,72.55
2022-08-27T07:31:20.343Z,72.87
2022-08-27T07:36:22.971Z,72.53
2022-08-27T07:41:25.638Z,72.49
2022-08-27T07:46:37.946Z,72.26
2022-08-27T07:51:41.900Z,71.90
2022-08-27T07:56:55.033Z,71.67
2022-08-27T08:01:58.263Z,71.35
2022-08-27T08:07:00.585Z,71.34
2022-08-27T08:12:03.582Z,71.62
2022-08-27T08:17:10.083Z,71.72
2022-08-27T08:22:12.878Z,71.35
2022-08-27T08:27:16.023Z,71.39
2022-08-27T08:32:18.421Z,70.99
2022-08-27T08:37:20.892Z,70.52
2022-08-27T08:42:29.121Z,70.63
2022-08-27T08:47:50.553Z,70.84
2022-08-27T08:52:59.378Z,70.29
2022-08-27T08:58:16.735Z,70.47
2022-08-27T09:03:19.132Z,69.74
2022-08-27T09:08:40.519Z,69.59
2022-08-27T09:13:51.601Z,70.45
2022-08-27T09:18:54.909Z,70.18
2022-08-27T09:24:08.451Z,71.04
2022-08-27T09:29:20.302Z,70.43
2022-08-27T09:34:24.286Z,70.13
2022-08-27T09:39:36.174Z,70.54
2022-08-27T09:44:52.881Z,70.37
2022-08-27T09:50:06.842Z,70.46
2022-08-27T09:55:10.169Z,70.03
2022-08-27T10:00:17.990Z,70.18
2022-08-27T10:05:32.324Z,70.38
2022-08-27T10:10:59.800Z,69.74
2022-08-27T10:16:40.291Z,69.83
2022-08-27T10:22:01.599Z,69.51
2022-08-27T10:27:17.556Z,68.90
2022-08-27T10:32:57.661Z,68.96
2022-08-27T10:38:15.374Z,69.08
2022-08-27T10:43:17.953Z,68.98
2022-08-27T10:48:34.419Z,68.39
2022-08-27T10:53:50.304Z,67.67
2022-08-27T10:59:19.198Z,66.18
2022-08-27T11:04:25.748Z,65.99
2022-08-27T11:09:46.128Z,66.32
2022-08-27T11:14:54.406Z,66.54
2022-08-27T11:20:04.545Z,65.14
2022-08-27T11:25:12.948Z,62.87
2022-08-27T11:30:29.493Z,61.96
2022-08-27T11:35:55.246Z,58.11
2022-08-27T11:41:10.389Z,57.50
2022-08-27T11:46:25.763Z,59.47
2022-08-27T11:51:39.819Z,61.38
2022-08-27T11:56:43.436Z,63.38
2022-08-27T12:01:45.786Z,63.80
2022-08-27T12:07:00.098Z,63.98
2022-08-27T12:12:21.870Z,62.89
2022-08-27T12:17:49.617Z,63.43
2022-08-27T12:23:28.802Z,64.62
2022-08-27T12:28:31.181Z,65.32
2022-08-27T12:33:43.473Z,65.76
2022-08-27T12:38:50.531Z,66.01
2022-08-27T12:44:09.804Z,65.56
2022-08-27T12:49:38.448Z,64.64
2022-08-27T12:54:55.582Z,65.09
2022-08-27T13:00:14.813Z,64.78
2022-08-27T13:05:22.596Z,64.41
2022-08-27T13:10:29.153Z,64.78
2022-08-27T13:15:34.165Z,64.71
2022-08-27T13:20:38.722Z,65.33
2022-08-27T13:25:41.307Z,65.06
2022-08-27T13:30:46.424Z,65.39
2022-08-27T13:35:49.013Z,65.13
2022-08-27T13:41:01.270Z,65.07
2022-08-27T13:46:12.017Z,64.31
2022-08-27T13:51:15.694Z,64.11
2022-08-27T13:56:31.751Z,63.44
2022-08-27T14:01:34.167Z,63.02
2022-08-27T14:06:41.338Z,64.25
2022-08-27T14:11:45.406Z,64.32
2022-08-27T14:16:57.639Z,64.06
2022-08-27T14:22:00.612Z,64.20
2022-08-27T14:27:08.789Z,63.03
2022-08-27T14:32:11.189Z,62.12
2022-08-27T14:37:14.744Z,62.87
2022-08-27T14:42:17.695Z,62.91
2022-08-27T14:47:20.235Z,63.51
2022-08-27T14:52:23.015Z,63.75
2022-08-27T14:57:25.403Z,63.77
2022-08-27T15:02:28.617Z,63.98
2022-08-27T15:07:31.186Z,64.20
2022-08-27T15:12:33.653Z,63.96
2022-08-27T15:17:36.505Z,64.35
2022-08-27T15:22:44.181Z,64.61
2022-08-27T15:27:46.746Z,64.75
2022-08-27T15:32:49.383Z,64.94
2022-08-27T15:37:52.344Z,64.45
2022-08-27T15:43:02.149Z,63.70
2022-08-27T15:48:04.922Z,63.92
2022-08-27T15:53:08.841Z,64.09
2022-08-27T15:58:11.517Z,64.28
2022-08-27T16:03:14.866Z,64.45
2022-08-27T16:08:17.657Z,64.61
2022-08-27T16:13:20.055Z,64.84
2022-08-27T16:18:26.950Z,65.18
2022-08-27T16:23:30.501Z,65.02
2022-08-27T16:28:32.798Z,64.62
2022-08-27T16:33:35.186Z,65.06
2022-08-27T16:38:42.069Z,65.71
2022-08-27T16:43:44.899Z,65.84
2022-08-27T16:49:05.636Z,66.97
2022-08-27T16:54:10.769Z,67.58
2022-08-27T16:59:13.199Z,67.75
2022-08-27T17:04:23.954Z,68.36
2022-08-27T17:09:31.848Z,68.42
2022-08-27T17:14:37.930Z,68.64
2022-08-27T17:19:40.332Z,69.05
2022-08-27T17:24:42.695Z,69.08
2022-08-27T17:29:44.938Z,69.36
2022-08-27T17:34:47.267Z,69.46
2022-08-27T17:39:49.572Z,69.90
2022-08-27T17:44:52.385Z,69.75
2022-08-27T17:49:54.746Z,70.03
2022-08-27T17:54:57.125Z,69.76
2022-08-27T18:00:04.610Z,69.78
2022-08-27T18:05:13.336Z,70.17
2022-08-27T18:10:20.203Z,70.24
2022-08-27T18:15:28.502Z,70.56
2022-08-27T18:20:32.341Z,70.50
2022-08-27T18:25:37.982Z,70.87
2022-08-27T18:30:43.748Z,71.01
2022-08-27T18:35:46.215Z,70.57
2022-08-27T18:40:50.145Z,70.72
2022-08-27T18:45:54.338Z,70.83
2022-08-27T18:50:58.837Z,71.05
2022-08-27T18:56:02.203Z,71.28
2022-08-27T19:01:11.154Z,71.47
2022-08-27T19:06:16.138Z,71.28
2022-08-27T19:11:18.855Z,71.30
2022-08-27T19:16:43.353Z,71.20
2022-08-27T19:21:50.701Z,71.07
2022-08-27T19:26:54.030Z,70.89
2022-08-27T19:31:56.423Z,71.25
2022-08-27T19:37:00.622Z,71.13
2022-08-27T19:42:04.516Z,71.41
2022-08-27T19:47:09.779Z,71.47
2022-08-27T19:52:12.896Z,71.46
2022-08-27T19:57:15.322Z,71.46
2022-08-27T20:02:17.553Z,71.65
2022-08-27T20:07:21.821Z,71.65
2022-08-27T20:12:24.316Z,71.54
2022-08-27T20:17:26.705Z,71.42
2022-08-27T20:22:31.622Z,71.46
2022-08-27T20:27:34.531Z,71.55
2022-08-27T20:32:36.944Z,71.71
2022-08-27T20:37:42.266Z,71.85
2022-08-27T20:42:44.964Z,71.82
2022-08-27T20:47:48.760Z,72.00
2022-08-27T20:52:52.144Z,71.96
2022-08-27T20:58:13.289Z,72.27
2022-08-27T21:03:15.719Z,72.22
2022-08-27T21:08:19.680Z,72.37
2022-08-27T21:13:22.176Z,72.34
2022-08-27T21:18:29.254Z,72.54
2022-08-27T21:23:34.054Z,72.22
2022-08-27T21:28:41.620Z,72.44
2022-08-27T21:33:43.926Z,72.39
2022-08-27T21:38:46.280Z,72.45
2022-08-27T21:43:49.252Z,72.56
2022-08-27T21:48:58.806Z,72.55
2022-08-27T21:54:01.681Z,72.68
2022-08-27T21:59:04.087Z,72.45
